Port Alsworth, Alaska
Current Conditions -  °F | °C
As of 2:53 AM on Saturday 01 Nov 2014 (Local Time) from PAIL Reporting Station
Overcast Overcast  
Wind Chill: 28°   Ceiling: 4900
Heat Index: 38°   Visibility: 10mi
Dew Point: 31°   Wind: 20mph
Humidity: 76%   Direction: 80°E
Pressure: 29.05"   Gusts: 26mph
Location:  60.2°N, 154.32°W
Report Text: PAIL 011053Z AUTO 08017G23KT 10SM OVC049 03/M01 A2905 RMK AO2 SLP839 T00331006 TSNO $
Loading
Personal Weather Stations






























Interactive Weather Map
Tropical Storm Tracking
New forecast layout! Learn more

10-Day Weather Forecast

Advertisements
Track Severe Weather on mobile